sensor_id;sensor_type;location;lat;lon;timestamp;P1;durP1;ratioP1;P2;durP2;ratioP2
32216;SDS011;67098;51.140;4.088;2023-03-31T00:00:27;15.30;;;2.47;;
32216;SDS011;67098;51.140;4.088;2023-03-31T00:02:53;13.18;;;2.47;;
32216;SDS011;67098;51.140;4.088;2023-03-31T00:05:20;19.80;;;2.70;;
32216;SDS011;67098;51.140;4.088;2023-03-31T00:07:51;22.08;;;3.15;;
32216;SDS011;67098;51.140;4.088;2023-03-31T00:10:19;16.80;;;3.20;;
32216;SDS011;67098;51.140;4.088;2023-03-31T00:12:45;21.05;;;3.28;;
32216;SDS011;67098;51.140;4.088;2023-03-31T00:15:10;20.02;;;3.35;;
32216;SDS011;67098;51.140;4.088;2023-03-31T00:17:36;17.25;;;3.42;;
32216;SDS011;67098;51.140;4.088;2023-03-31T00:20:02;20.17;;;3.35;;
32216;SDS011;67098;51.140;4.088;2023-03-31T00:22:30;23.00;;;3.10;;
32216;SDS011;67098;51.140;4.088;2023-03-31T00:24:55;22.40;;;3.60;;
32216;SDS011;67098;51.140;4.088;2023-03-31T00:27:21;28.02;;;3.10;;
32216;SDS011;67098;51.140;4.088;2023-03-31T00:29:47;23.88;;;2.78;;
32216;SDS011;67098;51.140;4.088;2023-03-31T00:32:14;23.27;;;3.28;;
32216;SDS011;67098;51.140;4.088;2023-03-31T00:34:40;22.02;;;3.35;;
32216;SDS011;67098;51.140;4.088;2023-03-31T00:37:06;28.75;;;3.72;;
32216;SDS011;67098;51.140;4.088;2023-03-31T00:39:33;22.38;;;3.40;;
32216;SDS011;67098;51.140;4.088;2023-03-31T00:42:01;20.98;;;4.22;;
32216;SDS011;67098;51.140;4.088;2023-03-31T00:44:28;21.60;;;3.92;;
32216;SDS011;67098;51.140;4.088;2023-03-31T00:47:04;24.52;;;4.03;;
32216;SDS011;67098;51.140;4.088;2023-03-31T00:49:39;16.08;;;2.60;;
32216;SDS011;67098;51.140;4.088;2023-03-31T00:52:29;22.13;;;3.50;;
32216;SDS011;67098;51.140;4.088;2023-03-31T00:55:03;18.67;;;2.83;;
32216;SDS011;67098;51.140;4.088;2023-03-31T00:57:32;22.48;;;3.72;;
32216;SDS011;67098;51.140;4.088;2023-03-31T01:00:04;24.67;;;3.85;;
32216;SDS011;67098;51.140;4.088;2023-03-31T01:02:45;24.65;;;3.05;;
32216;SDS011;67098;51.140;4.088;2023-03-31T01:05:21;20.55;;;3.08;;
32216;SDS011;67098;51.140;4.088;2023-03-31T01:07:50;21.05;;;3.58;;
32216;SDS011;67098;51.140;4.088;2023-03-31T01:10:18;17.70;;;3.60;;
32216;SDS011;67098;51.140;4.088;2023-03-31T01:12:46;19.70;;;3.10;;
32216;SDS011;67098;51.140;4.088;2023-03-31T01:15:16;15.15;;;2.90;;
32216;SDS011;67098;51.140;4.088;2023-03-31T01:17:42;20.23;;;3.53;;
32216;SDS011;67098;51.140;4.088;2023-03-31T01:23:01;13.70;;;2.50;;
32216;SDS011;67098;51.140;4.088;2023-03-31T01:40:12;18.65;;;3.20;;
32216;SDS011;67098;51.140;4.088;2023-03-31T01:42:49;18.48;;;2.65;;
32216;SDS011;67098;51.140;4.088;2023-03-31T01:53:13;14.48;;;2.53;;
32216;SDS011;67098;51.140;4.088;2023-03-31T01:58:23;20.38;;;2.90;;
32216;SDS011;67098;51.140;4.088;2023-03-31T02:00:58;13.38;;;2.92;;
32216;SDS011;67098;51.140;4.088;2023-03-31T02:03:31;14.77;;;2.83;;
32216;SDS011;67098;51.140;4.088;2023-03-31T02:06:04;16.95;;;2.80;;
32216;SDS011;67098;51.140;4.088;2023-03-31T02:08:37;15.05;;;2.92;;
32216;SDS011;67098;51.140;4.088;2023-03-31T02:11:06;12.90;;;2.10;;
32216;SDS011;67098;51.140;4.088;2023-03-31T02:13:32;11.98;;;2.20;;
32216;SDS011;67098;51.140;4.088;2023-03-31T02:16:01;16.48;;;2.58;;
32216;SDS011;67098;51.140;4.088;2023-03-31T02:18:30;16.65;;;3.63;;
32216;SDS011;67098;51.140;4.088;2023-03-31T02:21:02;11.73;;;2.13;;
32216;SDS011;67098;51.140;4.088;2023-03-31T02:23:30;14.23;;;2.60;;
32216;SDS011;67098;51.140;4.088;2023-03-31T02:26:00;13.10;;;2.20;;
32216;SDS011;67098;51.140;4.088;2023-03-31T02:28:28;14.77;;;2.42;;
32216;SDS011;67098;51.140;4.088;2023-03-31T02:31:11;17.70;;;4.10;;
32216;SDS011;67098;51.140;4.088;2023-03-31T02:33:46;17.77;;;3.47;;
32216;SDS011;67098;51.140;4.088;2023-03-31T02:36:13;11.07;;;3.28;;
32216;SDS011;67098;51.140;4.088;2023-03-31T02:38:42;19.77;;;3.90;;
32216;SDS011;67098;51.140;4.088;2023-03-31T02:41:11;13.00;;;3.95;;
32216;SDS011;67098;51.140;4.088;2023-03-31T02:43:37;17.45;;;4.10;;
32216;SDS011;67098;51.140;4.088;2023-03-31T02:46:03;21.08;;;4.47;;
32216;SDS011;67098;51.140;4.088;2023-03-31T02:48:33;18.63;;;4.50;;
32216;SDS011;67098;51.140;4.088;2023-03-31T03:12:35;15.05;;;3.72;;
32216;SDS011;67098;51.140;4.088;2023-03-31T03:15:12;14.73;;;3.20;;
32216;SDS011;67098;51.140;4.088;2023-03-31T03:17:42;12.15;;;3.13;;
32216;SDS011;67098;51.140;4.088;2023-03-31T03:20:10;14.52;;;2.80;;
32216;SDS011;67098;51.140;4.088;2023-03-31T03:22:36;12.90;;;2.97;;
32216;SDS011;67098;51.140;4.088;2023-03-31T03:25:04;13.35;;;2.92;;
32216;SDS011;67098;51.140;4.088;2023-03-31T03:27:34;11.20;;;2.22;;
32216;SDS011;67098;51.140;4.088;2023-03-31T03:30:01;10.85;;;2.58;;
32216;SDS011;67098;51.140;4.088;2023-03-31T03:32:30;8.20;;;2.22;;
32216;SDS011;67098;51.140;4.088;2023-03-31T03:34:58;12.05;;;2.78;;
32216;SDS011;67098;51.140;4.088;2023-03-31T03:37:24;12.85;;;2.38;;
32216;SDS011;67098;51.140;4.088;2023-03-31T03:39:50;11.50;;;2.45;;
32216;SDS011;67098;51.140;4.088;2023-03-31T03:42:15;12.63;;;2.20;;
32216;SDS011;67098;51.140;4.088;2023-03-31T03:44:41;13.15;;;2.17;;
32216;SDS011;67098;51.140;4.088;2023-03-31T03:47:07;6.13;;;1.77;;
32216;SDS011;67098;51.140;4.088;2023-03-31T03:49:32;8.02;;;1.70;;
32216;SDS011;67098;51.140;4.088;2023-03-31T03:51:58;6.47;;;1.65;;
32216;SDS011;67098;51.140;4.088;2023-03-31T03:54:23;6.43;;;1.17;;
32216;SDS011;67098;51.140;4.088;2023-03-31T03:56:49;7.30;;;1.92;;
32216;SDS011;67098;51.140;4.088;2023-03-31T03:59:15;10.30;;;1.52;;
32216;SDS011;67098;51.140;4.088;2023-03-31T04:01:40;6.97;;;1.40;;
32216;SDS011;67098;51.140;4.088;2023-03-31T04:04:06;6.60;;;1.25;;
32216;SDS011;67098;51.140;4.088;2023-03-31T04:06:32;6.30;;;1.60;;
32216;SDS011;67098;51.140;4.088;2023-03-31T04:08:58;5.43;;;1.27;;
32216;SDS011;67098;51.140;4.088;2023-03-31T04:11:23;3.30;;;0.73;;
32216;SDS011;67098;51.140;4.088;2023-03-31T04:13:49;5.57;;;1.17;;
32216;SDS011;67098;51.140;4.088;2023-03-31T04:16:15;4.72;;;0.80;;
32216;SDS011;67098;51.140;4.088;2023-03-31T04:18:41;2.47;;;0.70;;
32216;SDS011;67098;51.140;4.088;2023-03-31T04:21:13;3.70;;;0.90;;
32216;SDS011;67098;51.140;4.088;2023-03-31T04:23:47;4.10;;;1.13;;
32216;SDS011;67098;51.140;4.088;2023-03-31T04:26:14;3.30;;;0.90;;
32216;SDS011;67098;51.140;4.088;2023-03-31T04:28:42;2.30;;;0.70;;
32216;SDS011;67098;51.140;4.088;2023-03-31T04:31:11;2.28;;;0.75;;
32216;SDS011;67098;51.140;4.088;2023-03-31T04:33:40;3.05;;;0.60;;
32216;SDS011;67098;51.140;4.088;2023-03-31T04:36:10;3.35;;;0.70;;
32216;SDS011;67098;51.140;4.088;2023-03-31T04:38:42;4.72;;;0.85;;
32216;SDS011;67098;51.140;4.088;2023-03-31T04:41:11;4.10;;;0.73;;
32216;SDS011;67098;51.140;4.088;2023-03-31T04:43:37;5.78;;;0.80;;
32216;SDS011;67098;51.140;4.088;2023-03-31T04:46:03;2.95;;;0.88;;
32216;SDS011;67098;51.140;4.088;2023-03-31T04:48:30;3.40;;;1.00;;
32216;SDS011;67098;51.140;4.088;2023-03-31T04:50:55;5.32;;;0.77;;
32216;SDS011;67098;51.140;4.088;2023-03-31T04:53:21;4.18;;;0.90;;
32216;SDS011;67098;51.140;4.088;2023-03-31T04:55:47;4.85;;;1.00;;
32216;SDS011;67098;51.140;4.088;2023-03-31T04:58:13;6.78;;;0.90;;
32216;SDS011;67098;51.140;4.088;2023-03-31T05:00:39;5.30;;;1.00;;
32216;SDS011;67098;51.140;4.088;2023-03-31T05:03:05;3.50;;;0.85;;
32216;SDS011;67098;51.140;4.088;2023-03-31T05:05:31;4.50;;;1.10;;
32216;SDS011;67098;51.140;4.088;2023-03-31T05:07:57;4.32;;;1.02;;
32216;SDS011;67098;51.140;4.088;2023-03-31T05:10:23;6.85;;;1.42;;
32216;SDS011;67098;51.140;4.088;2023-03-31T05:12:48;2.17;;;0.88;;
32216;SDS011;67098;51.140;4.088;2023-03-31T05:15:14;4.95;;;1.20;;
32216;SDS011;67098;51.140;4.088;2023-03-31T05:17:40;7.72;;;1.45;;
32216;SDS011;67098;51.140;4.088;2023-03-31T05:20:06;11.25;;;1.90;;
32216;SDS011;67098;51.140;4.088;2023-03-31T05:22:36;12.05;;;1.95;;
32216;SDS011;67098;51.140;4.088;2023-03-31T05:25:03;14.13;;;2.13;;
32216;SDS011;67098;51.140;4.088;2023-03-31T05:27:30;10.90;;;1.92;;
32216;SDS011;67098;51.140;4.088;2023-03-31T05:29:56;10.45;;;2.08;;
32216;SDS011;67098;51.140;4.088;2023-03-31T05:32:22;7.63;;;1.83;;
32216;SDS011;67098;51.140;4.088;2023-03-31T05:34:48;13.52;;;2.10;;
32216;SDS011;67098;51.140;4.088;2023-03-31T05:37:16;7.78;;;1.73;;
32216;SDS011;67098;51.140;4.088;2023-03-31T05:39:43;10.30;;;2.42;;
32216;SDS011;67098;51.140;4.088;2023-03-31T05:42:09;11.27;;;2.63;;
32216;SDS011;67098;51.140;4.088;2023-03-31T05:44:35;8.20;;;1.83;;
32216;SDS011;67098;51.140;4.088;2023-03-31T05:47:01;11.70;;;2.00;;
32216;SDS011;67098;51.140;4.088;2023-03-31T05:49:26;10.27;;;2.20;;
32216;SDS011;67098;51.140;4.088;2023-03-31T05:51:52;16.48;;;2.28;;
32216;SDS011;67098;51.140;4.088;2023-03-31T05:54:18;14.93;;;2.35;;
32216;SDS011;67098;51.140;4.088;2023-03-31T05:56:43;18.95;;;2.78;;
32216;SDS011;67098;51.140;4.088;2023-03-31T05:59:09;12.25;;;2.50;;
32216;SDS011;67098;51.140;4.088;2023-03-31T06:01:35;19.10;;;3.70;;
32216;SDS011;67098;51.140;4.088;2023-03-31T06:04:00;18.33;;;3.05;;
32216;SDS011;67098;51.140;4.088;2023-03-31T06:06:26;14.93;;;2.85;;
32216;SDS011;67098;51.140;4.088;2023-03-31T06:08:52;14.20;;;3.33;;
32216;SDS011;67098;51.140;4.088;2023-03-31T06:11:19;11.88;;;2.47;;
32216;SDS011;67098;51.140;4.088;2023-03-31T06:13:45;24.45;;;3.53;;
32216;SDS011;67098;51.140;4.088;2023-03-31T06:16:12;18.70;;;4.28;;
32216;SDS011;67098;51.140;4.088;2023-03-31T06:18:39;24.73;;;3.80;;
32216;SDS011;67098;51.140;4.088;2023-03-31T06:21:05;21.55;;;3.80;;
32216;SDS011;67098;51.140;4.088;2023-03-31T06:23:32;15.98;;;3.67;;
32216;SDS011;67098;51.140;4.088;2023-03-31T06:26:05;16.50;;;2.70;;
32216;SDS011;67098;51.140;4.088;2023-03-31T06:28:33;23.15;;;3.60;;
32216;SDS011;67098;51.140;4.088;2023-03-31T06:31:07;17.90;;;3.00;;
32216;SDS011;67098;51.140;4.088;2023-03-31T06:33:36;21.63;;;3.72;;
32216;SDS011;67098;51.140;4.088;2023-03-31T06:36:03;20.40;;;3.08;;
32216;SDS011;67098;51.140;4.088;2023-03-31T06:38:30;16.52;;;3.47;;
32216;SDS011;67098;51.140;4.088;2023-03-31T06:40:57;22.52;;;3.75;;
32216;SDS011;67098;51.140;4.088;2023-03-31T06:43:23;23.42;;;3.92;;
32216;SDS011;67098;51.140;4.088;2023-03-31T06:45:49;23.00;;;3.95;;
32216;SDS011;67098;51.140;4.088;2023-03-31T06:48:16;18.02;;;3.08;;
32216;SDS011;67098;51.140;4.088;2023-03-31T06:50:42;26.27;;;4.15;;
32216;SDS011;67098;51.140;4.088;2023-03-31T06:53:08;18.20;;;3.40;;
32216;SDS011;67098;51.140;4.088;2023-03-31T06:55:34;22.35;;;3.63;;
32216;SDS011;67098;51.140;4.088;2023-03-31T06:58:00;28.10;;;4.00;;
32216;SDS011;67098;51.140;4.088;2023-03-31T07:00:26;21.65;;;3.83;;
32216;SDS011;67098;51.140;4.088;2023-03-31T07:02:52;21.38;;;4.03;;
32216;SDS011;67098;51.140;4.088;2023-03-31T07:05:18;16.48;;;3.40;;
32216;SDS011;67098;51.140;4.088;2023-03-31T07:07:50;20.20;;;3.63;;
32216;SDS011;67098;51.140;4.088;2023-03-31T07:10:17;17.85;;;3.05;;
32216;SDS011;67098;51.140;4.088;2023-03-31T07:12:43;21.90;;;3.75;;
32216;SDS011;67098;51.140;4.088;2023-03-31T07:15:09;21.73;;;3.42;;
32216;SDS011;67098;51.140;4.088;2023-03-31T07:17:34;19.33;;;4.00;;
32216;SDS011;67098;51.140;4.088;2023-03-31T07:20:02;22.27;;;4.40;;
32216;SDS011;67098;51.140;4.088;2023-03-31T07:22:28;25.23;;;3.97;;
32216;SDS011;67098;51.140;4.088;2023-03-31T07:24:54;20.38;;;3.67;;
32216;SDS011;67098;51.140;4.088;2023-03-31T07:27:20;23.05;;;3.50;;
32216;SDS011;67098;51.140;4.088;2023-03-31T07:29:46;23.85;;;4.25;;
32216;SDS011;67098;51.140;4.088;2023-03-31T07:32:11;34.40;;;4.28;;
32216;SDS011;67098;51.140;4.088;2023-03-31T07:34:37;29.58;;;3.72;;
32216;SDS011;67098;51.140;4.088;2023-03-31T07:37:04;17.80;;;3.63;;
32216;SDS011;67098;51.140;4.088;2023-03-31T07:39:30;22.30;;;4.60;;
32216;SDS011;67098;51.140;4.088;2023-03-31T07:41:56;24.30;;;4.00;;
32216;SDS011;67098;51.140;4.088;2023-03-31T07:44:21;21.05;;;3.65;;
32216;SDS011;67098;51.140;4.088;2023-03-31T07:46:47;20.70;;;3.72;;
32216;SDS011;67098;51.140;4.088;2023-03-31T07:49:13;32.45;;;4.25;;
32216;SDS011;67098;51.140;4.088;2023-03-31T07:51:40;25.27;;;4.05;;
32216;SDS011;67098;51.140;4.088;2023-03-31T07:54:06;22.75;;;4.65;;
32216;SDS011;67098;51.140;4.088;2023-03-31T07:56:31;27.92;;;5.05;;
32216;SDS011;67098;51.140;4.088;2023-03-31T07:58:57;32.47;;;4.07;;
32216;SDS011;67098;51.140;4.088;2023-03-31T08:01:23;25.70;;;4.85;;
32216;SDS011;67098;51.140;4.088;2023-03-31T08:03:50;23.08;;;4.65;;
32216;SDS011;67098;51.140;4.088;2023-03-31T08:06:18;24.63;;;3.90;;
32216;SDS011;67098;51.140;4.088;2023-03-31T08:08:45;24.55;;;4.40;;
32216;SDS011;67098;51.140;4.088;2023-03-31T08:11:11;25.25;;;4.05;;
32216;SDS011;67098;51.140;4.088;2023-03-31T08:13:37;26.70;;;4.15;;
32216;SDS011;67098;51.140;4.088;2023-03-31T08:16:03;28.60;;;5.03;;
32216;SDS011;67098;51.140;4.088;2023-03-31T08:18:28;23.02;;;4.10;;
32216;SDS011;67098;51.140;4.088;2023-03-31T08:20:54;18.23;;;4.22;;
32216;SDS011;67098;51.140;4.088;2023-03-31T08:23:20;25.20;;;3.55;;
32216;SDS011;67098;51.140;4.088;2023-03-31T08:25:45;28.40;;;4.97;;
32216;SDS011;67098;51.140;4.088;2023-03-31T08:28:11;26.92;;;4.47;;
32216;SDS011;67098;51.140;4.088;2023-03-31T08:30:38;29.67;;;4.57;;
32216;SDS011;67098;51.140;4.088;2023-03-31T08:33:05;16.88;;;3.33;;
32216;SDS011;67098;51.140;4.088;2023-03-31T08:35:32;21.42;;;3.95;;
32216;SDS011;67098;51.140;4.088;2023-03-31T08:37:58;25.20;;;4.45;;
32216;SDS011;67098;51.140;4.088;2023-03-31T08:40:25;24.48;;;3.72;;
32216;SDS011;67098;51.140;4.088;2023-03-31T08:43:00;19.83;;;3.50;;
32216;SDS011;67098;51.140;4.088;2023-03-31T08:45:34;22.95;;;3.55;;
32216;SDS011;67098;51.140;4.088;2023-03-31T08:48:37;20.23;;;3.50;;
32216;SDS011;67098;51.140;4.088;2023-03-31T08:51:13;17.50;;;3.50;;
32216;SDS011;67098;51.140;4.088;2023-03-31T08:53:49;23.60;;;4.07;;
32216;SDS011;67098;51.140;4.088;2023-03-31T08:56:19;25.85;;;3.95;;
32216;SDS011;67098;51.140;4.088;2023-03-31T08:58:48;22.02;;;3.83;;
32216;SDS011;67098;51.140;4.088;2023-03-31T09:09:41;23.42;;;3.58;;
32216;SDS011;67098;51.140;4.088;2023-03-31T09:12:28;23.92;;;3.65;;
32216;SDS011;67098;51.140;4.088;2023-03-31T09:15:28;20.10;;;3.97;;
32216;SDS011;67098;51.140;4.088;2023-03-31T09:18:32;19.73;;;3.55;;
32216;SDS011;67098;51.140;4.088;2023-03-31T09:21:05;21.35;;;3.80;;
32216;SDS011;67098;51.140;4.088;2023-03-31T09:23:46;28.88;;;3.95;;
32216;SDS011;67098;51.140;4.088;2023-03-31T09:26:21;22.75;;;4.65;;
32216;SDS011;67098;51.140;4.088;2023-03-31T09:28:59;21.42;;;3.95;;
32216;SDS011;67098;51.140;4.088;2023-03-31T09:31:30;29.80;;;3.67;;
32216;SDS011;67098;51.140;4.088;2023-03-31T09:33:58;22.23;;;3.80;;
32216;SDS011;67098;51.140;4.088;2023-03-31T09:36:25;31.80;;;4.68;;
32216;SDS011;67098;51.140;4.088;2023-03-31T09:38:51;22.30;;;4.05;;
32216;SDS011;67098;51.140;4.088;2023-03-31T09:41:17;22.25;;;4.72;;
32216;SDS011;67098;51.140;4.088;2023-03-31T09:43:44;33.22;;;4.72;;
32216;SDS011;67098;51.140;4.088;2023-03-31T09:46:15;24.65;;;3.60;;
32216;SDS011;67098;51.140;4.088;2023-03-31T09:48:51;28.83;;;3.97;;
32216;SDS011;67098;51.140;4.088;2023-03-31T09:51:25;26.08;;;5.07;;
32216;SDS011;67098;51.140;4.088;2023-03-31T09:54:01;22.33;;;4.10;;
32216;SDS011;67098;51.140;4.088;2023-03-31T09:56:45;28.13;;;6.28;;
32216;SDS011;67098;51.140;4.088;2023-03-31T09:59:29;26.88;;;6.20;;
32216;SDS011;67098;51.140;4.088;2023-03-31T10:01:59;27.88;;;5.30;;
32216;SDS011;67098;51.140;4.088;2023-03-31T10:04:28;28.70;;;5.70;;
32216;SDS011;67098;51.140;4.088;2023-03-31T10:06:56;25.13;;;4.38;;
32216;SDS011;67098;51.140;4.088;2023-03-31T10:09:25;29.52;;;5.75;;
32216;SDS011;67098;51.140;4.088;2023-03-31T10:11:55;20.35;;;4.00;;
32216;SDS011;67098;51.140;4.088;2023-03-31T10:14:31;22.83;;;4.20;;
32216;SDS011;67098;51.140;4.088;2023-03-31T10:17:04;22.13;;;3.83;;
32216;SDS011;67098;51.140;4.088;2023-03-31T10:19:35;22.83;;;4.68;;
32216;SDS011;67098;51.140;4.088;2023-03-31T10:22:05;26.27;;;4.07;;
32216;SDS011;67098;51.140;4.088;2023-03-31T10:24:41;28.52;;;4.40;;
32216;SDS011;67098;51.140;4.088;2023-03-31T10:29:51;27.70;;;4.47;;
32216;SDS011;67098;51.140;4.088;2023-03-31T10:34:55;25.67;;;3.50;;
32216;SDS011;67098;51.140;4.088;2023-03-31T10:37:23;32.55;;;4.75;;
32216;SDS011;67098;51.140;4.088;2023-03-31T10:43:03;28.67;;;3.97;;
32216;SDS011;67098;51.140;4.088;2023-03-31T10:48:24;21.08;;;3.95;;
32216;SDS011;67098;51.140;4.088;2023-03-31T10:51:03;24.08;;;4.72;;
32216;SDS011;67098;51.140;4.088;2023-03-31T10:53:43;22.70;;;4.20;;
32216;SDS011;67098;51.140;4.088;2023-03-31T11:01:33;34.33;;;4.50;;
32216;SDS011;67098;51.140;4.088;2023-03-31T11:12:23;15.38;;;3.10;;
32216;SDS011;67098;51.140;4.088;2023-03-31T11:15:01;14.75;;;3.05;;
32216;SDS011;67098;51.140;4.088;2023-03-31T11:23:20;25.73;;;4.75;;
32216;SDS011;67098;51.140;4.088;2023-03-31T11:25:58;18.17;;;3.42;;
32216;SDS011;67098;51.140;4.088;2023-03-31T11:31:29;16.50;;;4.05;;
32216;SDS011;67098;51.140;4.088;2023-03-31T11:42:05;17.30;;;2.70;;
32216;SDS011;67098;51.140;4.088;2023-03-31T11:44:40;20.00;;;2.90;;
32216;SDS011;67098;51.140;4.088;2023-03-31T11:47:12;15.18;;;2.53;;
32216;SDS011;67098;51.140;4.088;2023-03-31T11:50:25;14.10;;;2.30;;
32216;SDS011;67098;51.140;4.088;2023-03-31T11:52:45;11.50;;;2.42;;
32216;SDS011;67098;51.140;4.088;2023-03-31T11:55:20;15.32;;;3.03;;
32216;SDS011;67098;51.140;4.088;2023-03-31T11:57:55;18.88;;;3.03;;
32216;SDS011;67098;51.140;4.088;2023-03-31T12:00:27;18.80;;;2.92;;
32216;SDS011;67098;51.140;4.088;2023-03-31T12:05:52;15.07;;;2.63;;
32216;SDS011;67098;51.140;4.088;2023-03-31T12:11:03;18.33;;;2.70;;
32216;SDS011;67098;51.140;4.088;2023-03-31T12:13:54;11.52;;;2.20;;
32216;SDS011;67098;51.140;4.088;2023-03-31T12:16:50;16.10;;;2.15;;
32216;SDS011;67098;51.140;4.088;2023-03-31T12:19:26;16.00;;;1.55;;
32216;SDS011;67098;51.140;4.088;2023-03-31T12:24:37;6.97;;;1.77;;
32216;SDS011;67098;51.140;4.088;2023-03-31T12:29:46;15.35;;;1.80;;
32216;SDS011;67098;51.140;4.088;2023-03-31T12:32:18;7.38;;;1.70;;
32216;SDS011;67098;51.140;4.088;2023-03-31T12:34:52;11.20;;;1.60;;
32216;SDS011;67098;51.140;4.088;2023-03-31T12:43:08;5.32;;;1.30;;
32216;SDS011;67098;51.140;4.088;2023-03-31T12:53:53;6.75;;;1.55;;
32216;SDS011;67098;51.140;4.088;2023-03-31T12:56:26;5.20;;;1.30;;
32216;SDS011;67098;51.140;4.088;2023-03-31T12:58:52;7.45;;;1.23;;
32216;SDS011;67098;51.140;4.088;2023-03-31T13:01:24;5.47;;;1.02;;
32216;SDS011;67098;51.140;4.088;2023-03-31T13:06:45;9.10;;;1.27;;
32216;SDS011;67098;51.140;4.088;2023-03-31T13:11:45;7.00;;;1.50;;
32216;SDS011;67098;51.140;4.088;2023-03-31T13:16:51;7.45;;;1.40;;
32216;SDS011;67098;51.140;4.088;2023-03-31T13:19:35;4.55;;;1.13;;
32216;SDS011;67098;51.140;4.088;2023-03-31T13:22:02;6.25;;;1.30;;
32216;SDS011;67098;51.140;4.088;2023-03-31T13:24:30;7.32;;;1.20;;
32216;SDS011;67098;51.140;4.088;2023-03-31T13:26:57;6.25;;;1.10;;
32216;SDS011;67098;51.140;4.088;2023-03-31T13:29:44;5.60;;;1.02;;
32216;SDS011;67098;51.140;4.088;2023-03-31T13:34:43;4.35;;;1.30;;
32216;SDS011;67098;51.140;4.088;2023-03-31T13:39:40;7.20;;;0.95;;
32216;SDS011;67098;51.140;4.088;2023-03-31T13:45:15;13.18;;;2.33;;
32216;SDS011;67098;51.140;4.088;2023-03-31T13:47:58;2.15;;;1.13;;
32216;SDS011;67098;51.140;4.088;2023-03-31T14:06:54;4.38;;;0.77;;
32216;SDS011;67098;51.140;4.088;2023-03-31T14:09:39;3.25;;;0.70;;
32216;SDS011;67098;51.140;4.088;2023-03-31T14:14:55;5.53;;;1.85;;
32216;SDS011;67098;51.140;4.088;2023-03-31T14:17:22;6.40;;;1.80;;
32216;SDS011;67098;51.140;4.088;2023-03-31T14:22:47;3.33;;;1.15;;
32216;SDS011;67098;51.140;4.088;2023-03-31T14:25:43;3.47;;;0.82;;
32216;SDS011;67098;51.140;4.088;2023-03-31T14:34:33;3.90;;;0.93;;
32216;SDS011;67098;51.140;4.088;2023-03-31T14:39:21;3.67;;;0.98;;
32216;SDS011;67098;51.140;4.088;2023-03-31T14:41:52;7.60;;;1.20;;
32216;SDS011;67098;51.140;4.088;2023-03-31T14:44:18;4.63;;;0.90;;
32216;SDS011;67098;51.140;4.088;2023-03-31T14:46:45;4.47;;;1.08;;
32216;SDS011;67098;51.140;4.088;2023-03-31T14:49:17;8.23;;;1.75;;
32216;SDS011;67098;51.140;4.088;2023-03-31T14:51:51;5.53;;;1.02;;
32216;SDS011;67098;51.140;4.088;2023-03-31T14:54:19;6.80;;;1.15;;
32216;SDS011;67098;51.140;4.088;2023-03-31T14:56:46;4.97;;;0.95;;
32216;SDS011;67098;51.140;4.088;2023-03-31T14:59:31;2.85;;;1.00;;
32216;SDS011;67098;51.140;4.088;2023-03-31T15:02:00;4.95;;;1.17;;
32216;SDS011;67098;51.140;4.088;2023-03-31T15:04:28;4.60;;;0.95;;
32216;SDS011;67098;51.140;4.088;2023-03-31T15:06:59;9.07;;;1.95;;
32216;SDS011;67098;51.140;4.088;2023-03-31T15:09:26;9.98;;;1.45;;
32216;SDS011;67098;51.140;4.088;2023-03-31T15:11:58;5.25;;;1.70;;
32216;SDS011;67098;51.140;4.088;2023-03-31T15:14:29;5.97;;;1.83;;
32216;SDS011;67098;51.140;4.088;2023-03-31T15:16:59;6.93;;;1.75;;
32216;SDS011;67098;51.140;4.088;2023-03-31T15:19:26;3.65;;;0.93;;
32216;SDS011;67098;51.140;4.088;2023-03-31T15:22:01;4.20;;;0.90;;
32216;SDS011;67098;51.140;4.088;2023-03-31T15:24:35;6.53;;;1.20;;
32216;SDS011;67098;51.140;4.088;2023-03-31T15:27:02;7.18;;;1.30;;
32216;SDS011;67098;51.140;4.088;2023-03-31T15:29:36;7.60;;;1.27;;
32216;SDS011;67098;51.140;4.088;2023-03-31T15:32:07;6.13;;;1.50;;
32216;SDS011;67098;51.140;4.088;2023-03-31T15:34:41;7.55;;;1.42;;
32216;SDS011;67098;51.140;4.088;2023-03-31T15:37:07;8.10;;;1.90;;
32216;SDS011;67098;51.140;4.088;2023-03-31T15:39:35;12.02;;;2.10;;
32216;SDS011;67098;51.140;4.088;2023-03-31T15:42:02;6.40;;;1.35;;
32216;SDS011;67098;51.140;4.088;2023-03-31T15:44:44;10.82;;;1.60;;
32216;SDS011;67098;51.140;4.088;2023-03-31T15:47:15;13.52;;;2.53;;
32216;SDS011;67098;51.140;4.088;2023-03-31T15:52:36;13.43;;;2.17;;
32216;SDS011;67098;51.140;4.088;2023-03-31T15:58:05;19.13;;;3.03;;
32216;SDS011;67098;51.140;4.088;2023-03-31T16:00:40;16.20;;;2.90;;
32216;SDS011;67098;51.140;4.088;2023-03-31T16:03:28;16.25;;;2.65;;
32216;SDS011;67098;51.140;4.088;2023-03-31T16:08:56;17.85;;;2.67;;
32216;SDS011;67098;51.140;4.088;2023-03-31T16:14:17;17.10;;;3.03;;
32216;SDS011;67098;51.140;4.088;2023-03-31T16:17:18;13.65;;;2.85;;
32216;SDS011;67098;51.140;4.088;2023-03-31T16:20:06;14.85;;;2.47;;
32216;SDS011;67098;51.140;4.088;2023-03-31T16:22:44;16.30;;;2.65;;
32216;SDS011;67098;51.140;4.088;2023-03-31T16:25:14;16.75;;;2.53;;
32216;SDS011;67098;51.140;4.088;2023-03-31T16:27:43;11.10;;;2.63;;
32216;SDS011;67098;51.140;4.088;2023-03-31T16:30:13;14.53;;;2.67;;
32216;SDS011;67098;51.140;4.088;2023-03-31T16:32:57;17.58;;;2.63;;
32216;SDS011;67098;51.140;4.088;2023-03-31T16:35:34;18.55;;;3.13;;
32216;SDS011;67098;51.140;4.088;2023-03-31T16:38:04;17.23;;;2.88;;
32216;SDS011;67098;51.140;4.088;2023-03-31T16:40:35;14.32;;;2.75;;
32216;SDS011;67098;51.140;4.088;2023-03-31T16:43:15;19.05;;;3.70;;
32216;SDS011;67098;51.140;4.088;2023-03-31T16:45:49;13.07;;;2.63;;
32216;SDS011;67098;51.140;4.088;2023-03-31T16:48:18;20.17;;;3.03;;
32216;SDS011;67098;51.140;4.088;2023-03-31T16:50:45;15.98;;;2.60;;
32216;SDS011;67098;51.140;4.088;2023-03-31T16:53:13;13.25;;;3.78;;
32216;SDS011;67098;51.140;4.088;2023-03-31T16:55:40;15.93;;;3.33;;
32216;SDS011;67098;51.140;4.088;2023-03-31T16:58:06;20.13;;;3.30;;
32216;SDS011;67098;51.140;4.088;2023-03-31T17:00:32;12.95;;;2.88;;
32216;SDS011;67098;51.140;4.088;2023-03-31T17:02:59;19.88;;;2.83;;
32216;SDS011;67098;51.140;4.088;2023-03-31T17:05:26;16.45;;;3.42;;
32216;SDS011;67098;51.140;4.088;2023-03-31T17:07:52;20.23;;;3.05;;
32216;SDS011;67098;51.140;4.088;2023-03-31T17:10:18;20.30;;;3.40;;
32216;SDS011;67098;51.140;4.088;2023-03-31T17:12:45;23.27;;;3.88;;
32216;SDS011;67098;51.140;4.088;2023-03-31T17:15:11;16.70;;;3.47;;
32216;SDS011;67098;51.140;4.088;2023-03-31T17:17:37;21.50;;;3.45;;
32216;SDS011;67098;51.140;4.088;2023-03-31T17:20:03;17.45;;;2.92;;
32216;SDS011;67098;51.140;4.088;2023-03-31T17:22:30;15.52;;;3.15;;
32216;SDS011;67098;51.140;4.088;2023-03-31T17:24:57;20.83;;;3.92;;
32216;SDS011;67098;51.140;4.088;2023-03-31T17:27:26;22.83;;;5.40;;
32216;SDS011;67098;51.140;4.088;2023-03-31T17:29:53;17.70;;;3.47;;
32216;SDS011;67098;51.140;4.088;2023-03-31T17:32:19;17.67;;;3.75;;
32216;SDS011;67098;51.140;4.088;2023-03-31T17:34:45;24.73;;;4.43;;
32216;SDS011;67098;51.140;4.088;2023-03-31T17:37:13;20.85;;;3.70;;
32216;SDS011;67098;51.140;4.088;2023-03-31T17:39:39;24.23;;;4.20;;
32216;SDS011;67098;51.140;4.088;2023-03-31T17:42:04;22.65;;;4.45;;
32216;SDS011;67098;51.140;4.088;2023-03-31T17:44:30;17.20;;;4.93;;
32216;SDS011;67098;51.140;4.088;2023-03-31T17:46:56;21.58;;;4.35;;
32216;SDS011;67098;51.140;4.088;2023-03-31T17:49:22;28.90;;;5.20;;
32216;SDS011;67098;51.140;4.088;2023-03-31T17:51:49;31.83;;;5.25;;
32216;SDS011;67098;51.140;4.088;2023-03-31T17:54:15;26.80;;;4.95;;
32216;SDS011;67098;51.140;4.088;2023-03-31T17:56:40;24.10;;;3.55;;